sensor_id;sensor_type;location;lat;lon;timestamp;pressure;altitude;pressure_sealevel;temperature;humidity
84108;BME280;74203;50.730;1.626;2023-12-20T00:00:20;101034.34;;;6.76;79.21
84108;BME280;74203;50.730;1.626;2023-12-20T00:02:27;101018.25;;;6.84;79.88
84108;BME280;74203;50.730;1.626;2023-12-20T00:04:35;101038.06;;;6.91;79.16
84108;BME280;74203;50.730;1.626;2023-12-20T00:06:43;101030.00;;;6.83;79.86
84108;BME280;74203;50.730;1.626;2023-12-20T00:08:51;101027.81;;;6.87;80.06
84108;BME280;74203;50.730;1.626;2023-12-20T00:10:58;101025.12;;;6.95;79.49
84108;BME280;74203;50.730;1.626;2023-12-20T00:13:06;101022.63;;;7.01;79.41
84108;BME280;74203;50.730;1.626;2023-12-20T00:15:14;101032.69;;;7.07;79.13
84108;BME280;74203;50.730;1.626;2023-12-20T00:17:22;101037.37;;;6.97;79.95
84108;BME280;74203;50.730;1.626;2023-12-20T00:19:30;101055.50;;;6.95;78.90
84108;BME280;74203;50.730;1.626;2023-12-20T00:21:38;101038.72;;;7.01;78.54
84108;BME280;74203;50.730;1.626;2023-12-20T00:23:46;101046.78;;;7.09;78.18
84108;BME280;74203;50.730;1.626;2023-12-20T00:25:53;101044.44;;;6.98;77.66
84108;BME280;74203;50.730;1.626;2023-12-20T00:28:01;101048.44;;;7.02;77.98
84108;BME280;74203;50.730;1.626;2023-12-20T00:30:11;101048.62;;;7.01;78.26
84108;BME280;74203;50.730;1.626;2023-12-20T00:32:19;101039.38;;;6.95;78.84
84108;BME280;74203;50.730;1.626;2023-12-20T00:34:27;101030.00;;;6.99;79.33
84108;BME280;74203;50.730;1.626;2023-12-20T00:36:35;101039.06;;;6.98;78.92
84108;BME280;74203;50.730;1.626;2023-12-20T00:38:42;101049.09;;;7.04;78.64
84108;BME280;74203;50.730;1.626;2023-12-20T00:40:50;101035.03;;;7.02;79.35
84108;BME280;74203;50.730;1.626;2023-12-20T00:42:58;101047.44;;;7.03;79.38
84108;BME280;74203;50.730;1.626;2023-12-20T00:45:07;101042.75;;;7.05;78.43
84108;BME280;74203;50.730;1.626;2023-12-20T00:47:15;101044.78;;;7.11;78.18
84108;BME280;74203;50.730;1.626;2023-12-20T00:49:23;101059.34;;;7.09;78.14
84108;BME280;74203;50.730;1.626;2023-12-20T00:51:30;101062.53;;;7.04;77.30
84108;BME280;74203;50.730;1.626;2023-12-20T00:53:38;101049.81;;;6.98;77.75
84108;BME280;74203;50.730;1.626;2023-12-20T00:55:46;101050.31;;;6.94;77.90
84108;BME280;74203;50.730;1.626;2023-12-20T00:57:54;101060.87;;;6.95;77.04
84108;BME280;74203;50.730;1.626;2023-12-20T01:00:02;101046.78;;;6.93;77.15
84108;BME280;74203;50.730;1.626;2023-12-20T01:02:10;101039.75;;;6.92;77.49
84108;BME280;74203;50.730;1.626;2023-12-20T01:04:18;101053.16;;;6.92;77.95
84108;BME280;74203;50.730;1.626;2023-12-20T01:06:26;101049.63;;;6.92;78.36
84108;BME280;74203;50.730;1.626;2023-12-20T01:08:33;101059.53;;;6.99;78.77
84108;BME280;74203;50.730;1.626;2023-12-20T01:10:41;101073.44;;;7.03;78.50
84108;BME280;74203;50.730;1.626;2023-12-20T01:12:49;101055.34;;;7.05;78.16
84108;BME280;74203;50.730;1.626;2023-12-20T01:14:57;101060.53;;;6.98;78.90
84108;BME280;74203;50.730;1.626;2023-12-20T01:17:05;101059.72;;;6.98;79.37
84108;BME280;74203;50.730;1.626;2023-12-20T01:19:13;101064.22;;;6.97;79.92
84108;BME280;74203;50.730;1.626;2023-12-20T01:21:21;101054.34;;;6.98;80.34
84108;BME280;74203;50.730;1.626;2023-12-20T01:23:29;101048.09;;;6.97;78.26
84108;BME280;74203;50.730;1.626;2023-12-20T01:25:37;101051.47;;;7.16;77.90
84108;BME280;74203;50.730;1.626;2023-12-20T01:27:44;101049.28;;;7.11;78.34
84108;BME280;74203;50.730;1.626;2023-12-20T01:29:52;101046.13;;;6.99;78.06
84108;BME280;74203;50.730;1.626;2023-12-20T01:32:00;101058.19;;;7.03;77.88
84108;BME280;74203;50.730;1.626;2023-12-20T01:34:07;101067.91;;;7.04;77.94
84108;BME280;74203;50.730;1.626;2023-12-20T01:36:15;101042.06;;;7.03;78.18
84108;BME280;74203;50.730;1.626;2023-12-20T01:38:23;101046.09;;;7.07;77.85
84108;BME280;74203;50.730;1.626;2023-12-20T01:40:30;101033.34;;;7.01;78.66
84108;BME280;74203;50.730;1.626;2023-12-20T01:42:38;101052.16;;;6.93;79.77
84108;BME280;74203;50.730;1.626;2023-12-20T01:44:47;101054.16;;;6.91;79.75
84108;BME280;74203;50.730;1.626;2023-12-20T01:46:55;101047.44;;;7.03;79.50
84108;BME280;74203;50.730;1.626;2023-12-20T01:49:04;101044.94;;;7.02;79.60
84108;BME280;74203;50.730;1.626;2023-12-20T01:51:12;101057.66;;;7.16;77.87
84108;BME280;74203;50.730;1.626;2023-12-20T01:53:23;101049.28;;;7.19;78.18
84108;BME280;74203;50.730;1.626;2023-12-20T01:55:34;101051.47;;;7.16;78.75
84108;BME280;74203;50.730;1.626;2023-12-20T01:57:43;101056.16;;;7.14;78.34
84108;BME280;74203;50.730;1.626;2023-12-20T01:59:52;101056.50;;;7.19;78.04
84108;BME280;74203;50.730;1.626;2023-12-20T02:02:01;101053.28;;;7.23;77.77
84108;BME280;74203;50.730;1.626;2023-12-20T02:04:10;101051.97;;;7.19;77.79
84108;BME280;74203;50.730;1.626;2023-12-20T02:06:19;101046.78;;;7.26;77.53
84108;BME280;74203;50.730;1.626;2023-12-20T02:08:28;101057.16;;;7.21;77.44
84108;BME280;74203;50.730;1.626;2023-12-20T02:10:37;101061.72;;;7.20;77.25
84108;BME280;74203;50.730;1.626;2023-12-20T02:12:45;101048.25;;;7.28;76.94
84108;BME280;74203;50.730;1.626;2023-12-20T02:14:53;101043.75;;;7.21;76.33
84108;BME280;74203;50.730;1.626;2023-12-20T02:17:01;101045.94;;;7.25;76.54
84108;BME280;74203;50.730;1.626;2023-12-20T02:19:16;101033.66;;;7.23;77.32
84108;BME280;74203;50.730;1.626;2023-12-20T02:21:34;101054.31;;;7.14;77.18
84108;BME280;74203;50.730;1.626;2023-12-20T02:23:42;101051.16;;;7.19;76.96
84108;BME280;74203;50.730;1.626;2023-12-20T02:25:50;101057.50;;;7.18;75.73
84108;BME280;74203;50.730;1.626;2023-12-20T02:27:58;101043.75;;;7.21;75.98
84108;BME280;74203;50.730;1.626;2023-12-20T02:30:07;101046.44;;;7.12;76.40
84108;BME280;74203;50.730;1.626;2023-12-20T02:32:15;101040.41;;;7.02;76.58
84108;BME280;74203;50.730;1.626;2023-12-20T02:34:24;101029.16;;;6.99;77.24
84108;BME280;74203;50.730;1.626;2023-12-20T02:36:31;101037.37;;;7.05;77.11
84108;BME280;74203;50.730;1.626;2023-12-20T02:38:39;101030.34;;;7.12;77.06
84108;BME280;74203;50.730;1.626;2023-12-20T02:40:47;101043.41;;;7.07;76.93
84108;BME280;74203;50.730;1.626;2023-12-20T02:42:55;101046.09;;;7.07;76.83
84108;BME280;74203;50.730;1.626;2023-12-20T02:45:03;101047.13;;;6.98;76.80
84108;BME280;74203;50.730;1.626;2023-12-20T02:47:10;101044.59;;;7.05;76.48
84108;BME280;74203;50.730;1.626;2023-12-20T02:49:18;101039.41;;;7.11;76.85
84108;BME280;74203;50.730;1.626;2023-12-20T02:51:26;101046.44;;;7.04;77.91
84108;BME280;74203;50.730;1.626;2023-12-20T02:53:34;101036.03;;;7.09;78.09
84108;BME280;74203;50.730;1.626;2023-12-20T02:55:42;101045.09;;;7.08;78.08
84108;BME280;74203;50.730;1.626;2023-12-20T02:57:50;101047.13;;;7.06;77.64
84108;BME280;74203;50.730;1.626;2023-12-20T02:59:58;101040.06;;;7.05;77.51
84108;BME280;74203;50.730;1.626;2023-12-20T03:02:06;101027.78;;;7.11;77.81
84108;BME280;74203;50.730;1.626;2023-12-20T03:04:14;101037.37;;;7.05;77.76
84108;BME280;74203;50.730;1.626;2023-12-20T03:06:22;101035.19;;;7.01;76.94
84108;BME280;74203;50.730;1.626;2023-12-20T03:08:30;101031.00;;;7.06;76.26
84108;BME280;74203;50.730;1.626;2023-12-20T03:10:38;101035.03;;;7.02;76.93
84108;BME280;74203;50.730;1.626;2023-12-20T03:12:45;101025.97;;;7.03;76.69
84108;BME280;74203;50.730;1.626;2023-12-20T03:14:53;101026.97;;;6.94;77.00
84108;BME280;74203;50.730;1.626;2023-12-20T03:17:01;101014.22;;;6.96;76.69
84108;BME280;74203;50.730;1.626;2023-12-20T03:19:09;101026.63;;;6.97;77.12
84108;BME280;74203;50.730;1.626;2023-12-20T03:21:17;101031.31;;;7.03;76.66
84108;BME280;74203;50.730;1.626;2023-12-20T03:23:24;101012.22;;;6.98;75.28
84108;BME280;74203;50.730;1.626;2023-12-20T03:25:32;101028.16;;;7.08;75.36
84108;BME280;74203;50.730;1.626;2023-12-20T03:27:41;101043.59;;;7.06;75.68
84108;BME280;74203;50.730;1.626;2023-12-20T03:29:49;101029.34;;;7.05;76.61
84108;BME280;74203;50.730;1.626;2023-12-20T03:31:57;101033.50;;;7.08;76.58
84108;BME280;74203;50.730;1.626;2023-12-20T03:34:05;101036.03;;;7.09;76.61
84108;BME280;74203;50.730;1.626;2023-12-20T03:36:13;101035.69;;;7.21;76.70
84108;BME280;74203;50.730;1.626;2023-12-20T03:38:21;101020.06;;;7.16;77.24
84108;BME280;74203;50.730;1.626;2023-12-20T03:40:29;101032.50;;;7.17;77.67
84108;BME280;74203;50.730;1.626;2023-12-20T03:42:37;101028.31;;;7.15;76.82
84108;BME280;74203;50.730;1.626;2023-12-20T03:44:44;101034.69;;;7.22;76.04
84108;BME280;74203;50.730;1.626;2023-12-20T03:46:52;101023.63;;;7.25;76.58
84108;BME280;74203;50.730;1.626;2023-12-20T03:49:00;101028.97;;;7.25;76.06
84108;BME280;74203;50.730;1.626;2023-12-20T03:51:08;101017.06;;;7.27;75.28
84108;BME280;74203;50.730;1.626;2023-12-20T03:53:15;101026.97;;;7.27;75.35
84108;BME280;74203;50.730;1.626;2023-12-20T03:55:23;101024.78;;;7.22;75.98
84108;BME280;74203;50.730;1.626;2023-12-20T03:57:31;101029.31;;;7.22;76.12
84108;BME280;74203;50.730;1.626;2023-12-20T03:59:40;101026.63;;;7.22;76.16
84108;BME280;74203;50.730;1.626;2023-12-20T04:01:48;101019.75;;;7.19;76.05
84108;BME280;74203;50.730;1.626;2023-12-20T04:03:56;101027.97;;;7.18;76.23
84108;BME280;74203;50.730;1.626;2023-12-20T04:06:03;101029.13;;;7.23;75.73
84108;BME280;74203;50.730;1.626;2023-12-20T04:08:12;101026.81;;;7.20;76.38
84108;BME280;74203;50.730;1.626;2023-12-20T04:10:19;101028.12;;;7.16;76.54
84108;BME280;74203;50.730;1.626;2023-12-20T04:12:28;101029.97;;;7.16;76.26
84108;BME280;74203;50.730;1.626;2023-12-20T04:14:36;101023.59;;;7.17;76.76
84108;BME280;74203;50.730;1.626;2023-12-20T04:16:43;101016.25;;;7.19;76.77
84108;BME280;74203;50.730;1.626;2023-12-20T04:18:51;101025.44;;;7.16;76.16
84108;BME280;74203;50.730;1.626;2023-12-20T04:20:59;101033.50;;;7.24;75.71
84108;BME280;74203;50.730;1.626;2023-12-20T04:23:07;101030.50;;;7.19;75.80
84108;BME280;74203;50.730;1.626;2023-12-20T04:25:14;101048.78;;;7.16;75.69
84108;BME280;74203;50.730;1.626;2023-12-20T04:27:22;101023.94;;;7.14;76.09
84108;BME280;74203;50.730;1.626;2023-12-20T04:29:30;101042.75;;;7.14;76.49
84108;BME280;74203;50.730;1.626;2023-12-20T04:31:38;101024.63;;;7.16;76.50
84108;BME280;74203;50.730;1.626;2023-12-20T04:33:45;101030.31;;;7.21;76.77
84108;BME280;74203;50.730;1.626;2023-12-20T04:35:53;101039.72;;;7.17;77.01
84108;BME280;74203;50.730;1.626;2023-12-20T04:38:01;101036.34;;;7.23;77.13
84108;BME280;74203;50.730;1.626;2023-12-20T04:40:10;101031.34;;;7.20;78.01
84108;BME280;74203;50.730;1.626;2023-12-20T04:42:18;101036.19;;;7.16;78.64
84108;BME280;74203;50.730;1.626;2023-12-20T04:44:26;101033.19;;;7.19;78.73
84108;BME280;74203;50.730;1.626;2023-12-20T04:46:34;101028.62;;;7.28;78.27
84108;BME280;74203;50.730;1.626;2023-12-20T04:48:41;101032.34;;;7.27;78.27
84108;BME280;74203;50.730;1.626;2023-12-20T04:50:49;101033.34;;;7.26;78.07
84108;BME280;74203;50.730;1.626;2023-12-20T04:52:57;101028.66;;;7.20;78.34
84108;BME280;74203;50.730;1.626;2023-12-20T04:55:06;101032.66;;;7.24;78.09
84108;BME280;74203;50.730;1.626;2023-12-20T04:57:14;101047.78;;;7.25;77.00
84108;BME280;74203;50.730;1.626;2023-12-20T04:59:22;101026.28;;;7.33;77.36
84108;BME280;74203;50.730;1.626;2023-12-20T05:01:30;101023.94;;;7.22;77.37
84108;BME280;74203;50.730;1.626;2023-12-20T05:03:38;101020.41;;;7.29;77.36
84108;BME280;74203;50.730;1.626;2023-12-20T05:05:46;101018.56;;;7.22;77.29
84108;BME280;74203;50.730;1.626;2023-12-20T05:07:53;101019.56;;;7.29;76.99
84108;BME280;74203;50.730;1.626;2023-12-20T05:10:02;101016.37;;;7.33;77.07
84108;BME280;74203;50.730;1.626;2023-12-20T05:12:10;101031.81;;;7.23;77.36
84108;BME280;74203;50.730;1.626;2023-12-20T05:14:18;101013.84;;;7.24;77.12
84108;BME280;74203;50.730;1.626;2023-12-20T05:16:26;101019.75;;;7.27;76.85
84108;BME280;74203;50.730;1.626;2023-12-20T05:18:34;101015.22;;;7.20;77.57
84108;BME280;74203;50.730;1.626;2023-12-20T05:20:42;101020.59;;;7.20;77.62
84108;BME280;74203;50.730;1.626;2023-12-20T05:22:50;101017.72;;;7.29;77.49
84108;BME280;74203;50.730;1.626;2023-12-20T05:24:58;101030.97;;;7.23;76.78
84108;BME280;74203;50.730;1.626;2023-12-20T05:27:06;101027.28;;;7.24;77.01
84108;BME280;74203;50.730;1.626;2023-12-20T05:29:14;101011.53;;;7.21;77.45
84108;BME280;74203;50.730;1.626;2023-12-20T05:31:22;101011.69;;;7.19;77.62
84108;BME280;74203;50.730;1.626;2023-12-20T05:33:29;101016.56;;;7.16;77.57
84108;BME280;74203;50.730;1.626;2023-12-20T05:35:37;101018.56;;;7.22;77.94
84108;BME280;74203;50.730;1.626;2023-12-20T05:37:45;101015.53;;;7.17;78.06
84108;BME280;74203;50.730;1.626;2023-12-20T05:39:53;101031.00;;;7.15;78.21
84108;BME280;74203;50.730;1.626;2023-12-20T05:42:00;101029.66;;;7.19;77.58
84108;BME280;74203;50.730;1.626;2023-12-20T05:44:08;101026.63;;;7.14;78.06
84108;BME280;74203;50.730;1.626;2023-12-20T05:46:16;101024.94;;;7.21;77.52
84108;BME280;74203;50.730;1.626;2023-12-20T05:48:24;101015.56;;;7.25;76.72
84108;BME280;74203;50.730;1.626;2023-12-20T05:50:32;101018.91;;;7.19;76.98
84108;BME280;74203;50.730;1.626;2023-12-20T05:52:40;101035.00;;;7.10;77.14
84108;BME280;74203;50.730;1.626;2023-12-20T05:54:47;101034.53;;;7.07;77.82
84108;BME280;74203;50.730;1.626;2023-12-20T05:56:55;101049.81;;;7.06;77.93
84108;BME280;74203;50.730;1.626;2023-12-20T05:59:03;101042.41;;;7.00;78.15
84108;BME280;74203;50.730;1.626;2023-12-20T06:01:11;101052.81;;;7.03;78.18
84108;BME280;74203;50.730;1.626;2023-12-20T06:03:18;101048.28;;;7.04;78.26
84108;BME280;74203;50.730;1.626;2023-12-20T06:05:26;101045.44;;;7.05;78.76
84108;BME280;74203;50.730;1.626;2023-12-20T06:07:34;101044.91;;;7.10;78.66
84108;BME280;74203;50.730;1.626;2023-12-20T06:09:42;101032.00;;;7.14;79.14
84108;BME280;74203;50.730;1.626;2023-12-20T06:11:50;101026.97;;;7.10;78.50
84108;BME280;74203;50.730;1.626;2023-12-20T06:13:57;101020.75;;;7.10;78.62
84108;BME280;74203;50.730;1.626;2023-12-20T06:16:07;101015.53;;;7.17;78.51
84108;BME280;74203;50.730;1.626;2023-12-20T06:18:14;101020.75;;;7.10;78.36
84108;BME280;74203;50.730;1.626;2023-12-20T06:20:22;101010.37;;;7.07;78.57
84108;BME280;74203;50.730;1.626;2023-12-20T06:22:30;101024.63;;;7.16;78.83
84108;BME280;74203;50.730;1.626;2023-12-20T06:24:38;101028.81;;;7.18;78.60
84108;BME280;74203;50.730;1.626;2023-12-20T06:26:45;101025.59;;;7.23;78.20
84108;BME280;74203;50.730;1.626;2023-12-20T06:28:53;101011.53;;;7.21;77.66
84108;BME280;74203;50.730;1.626;2023-12-20T06:31:01;101020.59;;;7.20;78.43
84108;BME280;74203;50.730;1.626;2023-12-20T06:33:09;101019.25;;;7.16;78.82
84108;BME280;74203;50.730;1.626;2023-12-20T06:35:17;101004.31;;;7.13;79.04
84108;BME280;74203;50.730;1.626;2023-12-20T06:37:25;101005.97;;;7.22;78.74
84108;BME280;74203;50.730;1.626;2023-12-20T06:39:33;101014.00;;;7.30;78.58
84108;BME280;74203;50.730;1.626;2023-12-20T06:41:41;101013.84;;;7.24;78.60
84108;BME280;74203;50.730;1.626;2023-12-20T06:43:48;101011.31;;;7.30;78.58
84108;BME280;74203;50.730;1.626;2023-12-20T06:45:56;101008.50;;;7.32;78.45
84108;BME280;74203;50.730;1.626;2023-12-20T06:48:05;100996.75;;;7.33;78.10
84108;BME280;74203;50.730;1.626;2023-12-20T06:50:13;100998.25;;;7.27;77.73
84108;BME280;74203;50.730;1.626;2023-12-20T06:52:21;101003.28;;;7.30;78.10
84108;BME280;74203;50.730;1.626;2023-12-20T06:54:28;101000.25;;;7.33;78.75
84108;BME280;74203;50.730;1.626;2023-12-20T06:56:36;100996.87;;;7.31;78.65
84108;BME280;74203;50.730;1.626;2023-12-20T06:58:44;101001.09;;;7.34;78.57
84108;BME280;74203;50.730;1.626;2023-12-20T07:00:52;101003.59;;;7.35;78.52
84108;BME280;74203;50.730;1.626;2023-12-20T07:03:00;101000.59;;;7.30;78.68
84108;BME280;74203;50.730;1.626;2023-12-20T07:05:09;101009.00;;;7.27;79.33
84108;BME280;74203;50.730;1.626;2023-12-20T07:07:16;101000.94;;;7.27;79.99
84108;BME280;74203;50.730;1.626;2023-12-20T07:09:25;101005.81;;;7.32;79.64
84108;BME280;74203;50.730;1.626;2023-12-20T07:11:32;101008.31;;;7.33;79.79
84108;BME280;74203;50.730;1.626;2023-12-20T07:13:40;100999.06;;;7.36;80.24
84108;BME280;74203;50.730;1.626;2023-12-20T07:15:48;100998.22;;;7.35;80.36
84108;BME280;74203;50.730;1.626;2023-12-20T07:17:55;100993.37;;;7.39;80.26
84108;BME280;74203;50.730;1.626;2023-12-20T07:20:04;101002.19;;;7.56;79.92
84108;BME280;74203;50.730;1.626;2023-12-20T07:22:11;101003.72;;;7.50;79.88
84108;BME280;74203;50.730;1.626;2023-12-20T07:24:19;100998.00;;;7.61;79.63
84108;BME280;74203;50.730;1.626;2023-12-20T07:26:27;101009.06;;;7.66;78.91
84108;BME280;74203;50.730;1.626;2023-12-20T07:28:35;101004.66;;;7.74;78.06
84108;BME280;74203;50.730;1.626;2023-12-20T07:30:43;101017.13;;;7.66;77.41
84108;BME280;74203;50.730;1.626;2023-12-20T07:32:50;101025.00;;;7.68;77.13
84108;BME280;74203;50.730;1.626;2023-12-20T07:34:58;101022.81;;;7.63;76.67
84108;BME280;74203;50.730;1.626;2023-12-20T07:37:06;101022.12;;;7.70;76.51
84108;BME280;74203;50.730;1.626;2023-12-20T07:39:14;101013.75;;;7.64;77.25
84108;BME280;74203;50.730;1.626;2023-12-20T07:41:22;101018.09;;;7.74;76.98
84108;BME280;74203;50.730;1.626;2023-12-20T07:43:30;101025.62;;;7.78;77.40
84108;BME280;74203;50.730;1.626;2023-12-20T21:57:14;100331.69;;;9.16;87.80
84108;BME280;74203;50.730;1.626;2023-12-20T21:59:18;100313.94;;;9.28;87.43
84108;BME280;74203;50.730;1.626;2023-12-20T22:01:23;100306.72;;;9.36;86.93
84108;BME280;74203;50.730;1.626;2023-12-20T22:03:31;100300.78;;;9.67;86.00
84108;BME280;74203;50.730;1.626;2023-12-20T22:05:39;100294.84;;;10.18;83.64
84108;BME280;74203;50.730;1.626;2023-12-20T22:07:47;100283.88;;;10.46;81.58
84108;BME280;74203;50.730;1.626;2023-12-20T22:09:55;100289.06;;;10.41;81.70
84108;BME280;74203;50.730;1.626;2023-12-20T22:12:03;100293.81;;;10.19;82.56
84108;BME280;74203;50.730;1.626;2023-12-20T22:14:11;100291.94;;;10.19;82.82
84108;BME280;74203;50.730;1.626;2023-12-20T22:16:18;100300.47;;;10.36;82.68
84108;BME280;74203;50.730;1.626;2023-12-20T22:18:26;100292.19;;;10.51;82.27
84108;BME280;74203;50.730;1.626;2023-12-20T22:20:34;100295.06;;;10.43;82.16
84108;BME280;74203;50.730;1.626;2023-12-20T22:22:42;100281.56;;;10.43;82.24
84108;BME280;74203;50.730;1.626;2023-12-20T22:24:50;100283.06;;;10.38;82.82
84108;BME280;74203;50.730;1.626;2023-12-20T22:26:58;100278.28;;;10.34;82.72
84108;BME280;74203;50.730;1.626;2023-12-20T22:29:06;100277.66;;;10.38;83.04
84108;BME280;74203;50.730;1.626;2023-12-20T22:31:13;100270.16;;;10.41;82.96
84108;BME280;74203;50.730;1.626;2023-12-20T22:33:21;100267.69;;;10.32;83.34
84108;BME280;74203;50.730;1.626;2023-12-20T22:35:30;100259.16;;;10.35;82.98
84108;BME280;74203;50.730;1.626;2023-12-20T22:37:38;100251.91;;;10.29;83.41
84108;BME280;74203;50.730;1.626;2023-12-20T22:39:46;100250.47;;;10.40;83.16
84108;BME280;74203;50.730;1.626;2023-12-20T22:41:53;100244.44;;;10.45;82.64
84108;BME280;74203;50.730;1.626;2023-12-20T22:44:01;100245.66;;;10.42;82.68
84108;BME280;74203;50.730;1.626;2023-12-20T22:46:08;100269.34;;;10.47;82.70
84108;BME280;74203;50.730;1.626;2023-12-20T22:48:16;100258.56;;;10.40;82.96
84108;BME280;74203;50.730;1.626;2023-12-20T22:50:24;100262.69;;;10.29;83.47
84108;BME280;74203;50.730;1.626;2023-12-20T22:52:31;100263.94;;;10.33;83.47
84108;BME280;74203;50.730;1.626;2023-12-20T22:54:39;100251.50;;;10.39;83.35
84108;BME280;74203;50.730;1.626;2023-12-20T22:56:46;100251.88;;;10.43;83.20
84108;BME280;74203;50.730;1.626;2023-12-20T22:58:54;100264.75;;;10.47;83.03
84108;BME280;74203;50.730;1.626;2023-12-20T23:01:02;100260.41;;;10.39;83.13
84108;BME280;74203;50.730;1.626;2023-12-20T23:03:09;100247.97;;;10.38;83.04
84108;BME280;74203;50.730;1.626;2023-12-20T23:05:17;100257.94;;;10.38;83.20
84108;BME280;74203;50.730;1.626;2023-12-20T23:07:25;100265.62;;;10.28;83.46
84108;BME280;74203;50.730;1.626;2023-12-20T23:09:33;100273.91;;;10.26;83.74
84108;BME280;74203;50.730;1.626;2023-12-20T23:11:41;100258.56;;;10.33;83.72
84108;BME280;74203;50.730;1.626;2023-12-20T23:13:48;100263.56;;;10.30;83.84
84108;BME280;74203;50.730;1.626;2023-12-20T23:15:56;100267.09;;;10.30;84.08
84108;BME280;74203;50.730;1.626;2023-12-20T23:18:04;100264.56;;;10.35;83.66
84108;BME280;74203;50.730;1.626;2023-12-20T23:20:13;100263.13;;;10.33;83.69
84108;BME280;74203;50.730;1.626;2023-12-20T23:22:21;100256.28;;;10.30;83.72
84108;BME280;74203;50.730;1.626;2023-12-20T23:24:29;100257.94;;;10.38;83.82
84108;BME280;74203;50.730;1.626;2023-12-20T23:26:37;100260.22;;;10.34;84.09
84108;BME280;74203;50.730;1.626;2023-12-20T23:28:44;100244.03;;;10.34;83.90
84108;BME280;74203;50.730;1.626;2023-12-20T23:30:52;100234.47;;;10.38;83.75
84108;BME280;74203;50.730;1.626;2023-12-20T23:32:59;100241.09;;;10.36;83.98
84108;BME280;74203;50.730;1.626;2023-12-20T23:35:08;100237.37;;;10.44;83.63
84108;BME280;74203;50.730;1.626;2023-12-20T23:37:16;100230.75;;;10.39;83.97
84108;BME280;74203;50.730;1.626;2023-12-20T23:39:24;100223.47;;;10.33;84.17
84108;BME280;74203;50.730;1.626;2023-12-20T23:41:32;100230.31;;;10.36;84.42
